Etusivu
METAR-TAF:

METAR-TAF

Lentoasemat :

Yapin kansainvälinen lentoasema

Yap, Mikronesia

Leveyspiiri: 09-29N, Pituuspiiri: 138-05E, korkeus merenpinnasta: 28 m

Tämänhetkinen sää

Tämä raportti tehtiin 1 tunti ja 3 minuuttia sitten, kello 08.53 UTC
Tuuli 5 kn eri suunnista
Lämpötila 28°C
Kosteus 79%
Ilmanpaine 1010 hPa
Näkyvyys: 19.3 km
Muutamia pilviä 1600 ft:n korkeudessa
Hajonneita pilviä 30000 ft:n korkeudessa

METAR: PTYA 220853Z VRB05KT 12SM FEW016 BKN300 28/24 A2983 RMK SLP101 8/101 T02790235 53007

Aika: 19:56 (09:56 UTC)

Sääennuste

Tämä raportti tehtiin 4 tuntia ja 30 minuuttia sitten, kello 05.26 UTC
Ennuste voimassa 22. päivästä klo 06 UTC - 23. päivään klo 06 UTC
Tuuli 12 kn koillisesta
Näkyvyys: 10 km
Muutamia pilviä 1600 ft:n korkeudessa
Hajanaisia pilviä 3000 ft:n korkeudessa
sadekuuroja näköpiirissä

TAF: PTYA 220526Z 2206/2306 04012KT P6SM VCSH FEW016 SCT030

Säähavainnot ja -ennusteet yli 4000 lentoasemalta (METAR- ja TAF-raportit).

Käytössä olevat sääasemat on merkitty karttaan keltaisilla ja punaisilla pisteillä.

Aseta hiiri pisteen päälle nähdäksesi sääaseman nimen.

Klikkaa sitten nähdäksesi säähavainnot ja -ennusteet.

Kartan vaihtaminen: klikkaa mustalla rastilla varustettuja vihreitä pisteitä, niin voit zoomata sisään; viivalla varustettua vihreää pistettä, niin voit zoomata ulos tai vihreitä nuolia, niin pääset viereisille kartoille.


METAR-TAF: